createdAt,value
2019-02-24T00:01:51.383Z,18.75
2019-02-24T00:04:19.284Z,21.27
2019-02-24T00:06:47.155Z,22.13
2019-02-24T00:09:15.017Z,18.37
2019-02-24T00:11:42.893Z,20.72
2019-02-24T00:14:10.821Z,21.00
2019-02-24T00:16:38.691Z,20.48
2019-02-24T00:19:06.578Z,19.95
2019-02-24T00:21:34.485Z,21.12
2019-02-24T00:24:05.510Z,18.85
2019-02-24T00:26:33.460Z,21.17
2019-02-24T00:29:01.325Z,20.37
2019-02-24T00:31:29.214Z,19.87
2019-02-24T00:33:57.093Z,22.13
2019-02-24T00:36:25.042Z,21.35
2019-02-24T00:38:52.902Z,21.40
2019-02-24T00:41:20.746Z,20.40
2019-02-24T00:43:48.644Z,21.42
2019-02-24T00:46:16.489Z,23.87
2019-02-24T00:48:44.403Z,22.80
2019-02-24T00:51:12.269Z,20.20
2019-02-24T00:53:40.140Z,20.40
2019-02-24T00:56:08.014Z,19.80
2019-02-24T00:58:35.847Z,20.32
2019-02-24T01:01:03.722Z,24.23
2019-02-24T01:03:31.653Z,20.45
2019-02-24T01:05:59.625Z,22.02
2019-02-24T01:08:27.470Z,20.30
2019-02-24T01:10:55.362Z,19.45
2019-02-24T01:13:23.233Z,20.80
2019-02-24T01:15:51.080Z,20.65
2019-02-24T01:18:18.970Z,20.10
2019-02-24T01:20:46.857Z,19.87
2019-02-24T01:23:14.740Z,20.17
2019-02-24T01:25:42.616Z,23.52
2019-02-24T01:28:10.626Z,22.00
2019-02-24T01:30:38.504Z,19.82
2019-02-24T01:33:06.389Z,24.50
2019-02-24T01:35:34.322Z,21.75
2019-02-24T01:38:02.256Z,22.10
2019-02-24T01:40:30.142Z,21.33
2019-02-24T01:42:58.044Z,20.55
2019-02-24T01:45:25.961Z,22.13
2019-02-24T01:47:53.854Z,21.77
2019-02-24T01:50:21.735Z,22.50
2019-02-24T01:52:49.611Z,22.07
2019-02-24T01:55:17.507Z,21.23
2019-02-24T01:57:45.402Z,24.25
2019-02-24T02:00:13.390Z,25.10
2019-02-24T02:02:41.271Z,23.20
2019-02-24T02:05:09.232Z,21.82
2019-02-24T02:07:37.273Z,23.22
2019-02-24T02:10:05.138Z,20.27
2019-02-24T02:12:33.057Z,23.62
2019-02-24T02:15:00.912Z,20.88
2019-02-24T02:17:28.830Z,21.02
2019-02-24T02:19:56.690Z,21.90
2019-02-24T02:22:24.597Z,18.82
2019-02-24T02:24:52.473Z,23.42
2019-02-24T02:27:20.402Z,21.60
2019-02-24T02:29:48.360Z,21.68
2019-02-24T02:32:16.253Z,18.92
2019-02-24T02:34:44.145Z,21.57
2019-02-24T02:37:12.035Z,23.00
2019-02-24T02:39:39.897Z,22.93
2019-02-24T02:42:07.766Z,22.37
2019-02-24T02:44:35.629Z,19.05
2019-02-24T02:47:03.510Z,22.17
2019-02-24T02:49:31.438Z,22.48
2019-02-24T02:51:59.334Z,20.82
2019-02-24T02:54:27.325Z,20.90
2019-02-24T02:56:55.252Z,19.45
2019-02-24T02:59:23.109Z,20.27
2019-02-24T03:01:50.999Z,23.73
2019-02-24T03:04:18.909Z,20.50
2019-02-24T03:07:04.466Z,19.73
2019-02-24T03:09:32.426Z,20.37
2019-02-24T03:12:00.302Z,21.73
2019-02-24T03:14:28.184Z,21.90
2019-02-24T03:16:56.035Z,23.22
2019-02-24T03:19:23.954Z,19.75
2019-02-24T03:21:51.820Z,22.55
2019-02-24T03:24:19.746Z,22.17
2019-02-24T03:26:47.606Z,20.55
2019-02-24T03:29:15.470Z,22.13
2019-02-24T03:31:43.339Z,20.72
2019-02-24T03:34:11.288Z,22.98
2019-02-24T03:36:39.220Z,19.52
2019-02-24T03:39:07.152Z,22.22
2019-02-24T03:41:35.131Z,23.45
2019-02-24T03:44:03.059Z,24.27
2019-02-24T03:46:30.975Z,20.68
2019-02-24T03:48:58.853Z,22.22
2019-02-24T03:51:26.856Z,22.05
2019-02-24T03:53:54.196Z,22.23
2019-02-24T03:56:22.043Z,18.98
2019-02-24T03:58:49.905Z,20.85
2019-02-24T04:01:17.792Z,21.23
2019-02-24T04:03:45.680Z,24.63
2019-02-24T04:06:13.623Z,19.42
2019-02-24T04:08:41.567Z,20.57
2019-02-24T04:11:09.453Z,22.20
2019-02-24T04:13:37.328Z,21.23
2019-02-24T04:16:05.210Z,22.50
2019-02-24T04:18:33.118Z,23.62
2019-02-24T04:21:01.003Z,21.05
2019-02-24T04:23:28.877Z,20.57
2019-02-24T04:25:56.792Z,21.57
2019-02-24T04:28:24.664Z,20.37
2019-02-24T04:30:51.965Z,19.83
2019-02-24T04:33:19.844Z,21.40
2019-02-24T04:35:47.804Z,21.35
2019-02-24T04:38:16.093Z,22.87
2019-02-24T04:40:44.008Z,21.20
2019-02-24T04:43:11.888Z,34.53
2019-02-24T04:45:39.210Z,34.23
2019-02-24T04:48:07.096Z,25.80
2019-02-24T04:50:35.007Z,22.37
2019-02-24T04:53:02.945Z,20.48
2019-02-24T04:55:30.837Z,25.35
2019-02-24T04:57:58.698Z,22.37
2019-02-24T05:00:26.614Z,18.75
2019-02-24T05:02:54.483Z,20.32
2019-02-24T05:05:22.325Z,21.15
2019-02-24T05:07:50.218Z,19.40
2019-02-24T05:10:18.082Z,19.73
2019-02-24T05:12:45.919Z,19.07
2019-02-24T05:15:13.843Z,21.52
2019-02-24T05:17:41.719Z,20.48
2019-02-24T05:20:09.588Z,21.17
2019-02-24T05:22:37.438Z,20.43
2019-02-24T05:25:05.311Z,28.20
2019-02-24T05:27:33.290Z,27.32
2019-02-24T05:30:01.302Z,21.12
2019-02-24T05:32:29.168Z,21.40
2019-02-24T05:34:57.011Z,21.07
2019-02-24T05:37:24.878Z,20.30
2019-02-24T05:39:52.784Z,20.92
2019-02-24T05:42:20.640Z,19.67
2019-02-24T05:44:48.481Z,20.97
2019-02-24T05:47:16.345Z,21.12
2019-02-24T05:49:44.184Z,20.75
2019-02-24T05:52:12.087Z,19.70
2019-02-24T05:54:39.973Z,20.72
2019-02-24T05:57:07.811Z,20.35
2019-02-24T05:59:35.714Z,22.45
2019-02-24T06:02:03.585Z,19.37
2019-02-24T06:04:31.438Z,20.82
2019-02-24T06:06:59.339Z,21.65
2019-02-24T06:09:27.208Z,19.27
2019-02-24T06:11:55.093Z,20.95
2019-02-24T06:14:22.954Z,19.62
2019-02-24T06:16:50.851Z,19.57
2019-02-24T06:19:18.725Z,20.97
2019-02-24T06:21:46.606Z,22.75
2019-02-24T06:24:14.473Z,19.95
2019-02-24T06:26:42.410Z,21.77
2019-02-24T06:29:10.285Z,21.87
2019-02-24T06:31:38.267Z,21.48
2019-02-24T06:34:06.193Z,22.35
2019-02-24T06:36:34.073Z,23.32
2019-02-24T06:39:02.045Z,20.90
2019-02-24T06:41:29.945Z,23.92
2019-02-24T06:46:39.110Z,24.60
2019-02-24T06:49:06.970Z,23.40
2019-02-24T06:51:35.063Z,21.75
2019-02-24T06:54:02.938Z,21.70
2019-02-24T06:56:30.850Z,24.18
2019-02-24T06:58:58.744Z,21.37
2019-02-24T07:01:26.641Z,20.45
2019-02-24T07:03:54.657Z,23.30
2019-02-24T07:06:22.730Z,20.10
2019-02-24T07:08:50.610Z,21.65
2019-02-24T07:11:18.533Z,17.87
2019-02-24T07:13:46.450Z,23.35
2019-02-24T07:16:14.347Z,23.35
2019-02-24T07:18:42.328Z,20.72
2019-02-24T07:21:10.186Z,23.85
2019-02-24T07:23:38.076Z,20.62
2019-02-24T07:26:05.938Z,21.23
2019-02-24T07:28:33.832Z,23.75
2019-02-24T07:31:01.700Z,21.02
2019-02-24T07:33:29.572Z,22.75
2019-02-24T07:35:57.430Z,23.02
2019-02-24T07:38:25.332Z,25.32
2019-02-24T07:40:53.223Z,21.20
2019-02-24T07:43:21.097Z,22.48
2019-02-24T07:45:48.989Z,20.92
2019-02-24T07:48:16.872Z,25.08
2019-02-24T07:50:44.842Z,22.05
2019-02-24T07:53:12.807Z,24.05
2019-02-24T07:55:40.791Z,28.57
2019-02-24T07:58:08.805Z,23.77
2019-02-24T08:00:36.706Z,24.30
2019-02-24T08:03:04.739Z,21.12
2019-02-24T08:05:32.725Z,20.65
2019-02-24T08:08:02.497Z,18.05
2019-02-24T08:10:30.478Z,19.77
2019-02-24T08:12:58.513Z,19.60
2019-02-24T08:15:26.566Z,19.57
2019-02-24T08:17:54.598Z,18.17
2019-02-24T08:20:22.477Z,16.12
2019-02-24T08:22:50.317Z,16.15
2019-02-24T08:25:18.223Z,18.32
2019-02-24T08:27:46.175Z,17.95
2019-02-24T08:30:14.145Z,18.75
2019-02-24T08:32:42.066Z,18.77
2019-02-24T08:35:09.995Z,18.10
2019-02-24T08:37:37.839Z,17.85
2019-02-24T08:40:05.756Z,19.73
2019-02-24T08:42:33.640Z,14.50
2019-02-24T08:45:01.476Z,17.20
2019-02-24T08:47:29.329Z,17.67
2019-02-24T08:49:57.211Z,16.05
2019-02-24T08:52:25.099Z,22.22
2019-02-24T08:54:53.005Z,18.20
2019-02-24T08:57:20.914Z,19.20
2019-02-24T08:59:48.861Z,19.90
2019-02-24T09:02:16.756Z,16.90
2019-02-24T09:04:44.638Z,17.90
2019-02-24T09:07:12.514Z,18.10
2019-02-24T09:09:40.494Z,17.32
2019-02-24T09:12:08.337Z,17.10
2019-02-24T09:14:36.225Z,18.65
2019-02-24T09:17:04.162Z,17.40
2019-02-24T09:19:32.027Z,16.60
2019-02-24T09:21:59.879Z,17.27
2019-02-24T09:24:27.736Z,19.07
2019-02-24T09:26:55.626Z,14.95
2019-02-24T09:29:23.545Z,18.25
2019-02-24T09:31:51.416Z,15.88
2019-02-24T09:34:19.276Z,14.40
2019-02-24T09:36:47.128Z,14.95
2019-02-24T09:39:14.976Z,15.43
2019-02-24T09:41:42.855Z,14.07
2019-02-24T09:44:10.721Z,14.47
2019-02-24T09:46:38.674Z,17.45
2019-02-24T09:49:06.549Z,16.00
2019-02-24T09:51:34.411Z,12.28
2019-02-24T09:54:02.283Z,16.27
2019-02-24T09:56:30.116Z,14.23
2019-02-24T09:58:58.033Z,13.35
2019-02-24T10:01:25.963Z,14.47
2019-02-24T10:03:53.858Z,12.60
2019-02-24T10:06:21.711Z,15.83
2019-02-24T10:08:49.585Z,14.65
2019-02-24T10:11:17.459Z,11.40
2019-02-24T10:13:45.356Z,13.58
2019-02-24T10:16:13.282Z,14.43
2019-02-24T10:18:41.198Z,12.47
2019-02-24T10:21:09.049Z,11.80
2019-02-24T10:23:36.938Z,10.45
2019-02-24T10:26:04.775Z,10.70
2019-02-24T10:28:32.635Z,9.35
2019-02-24T10:31:01.573Z,9.58
2019-02-24T10:33:29.570Z,9.58
2019-02-24T10:35:57.503Z,11.10
2019-02-24T10:38:25.430Z,10.15
2019-02-24T10:40:53.310Z,11.48
2019-02-24T10:43:21.177Z,8.85
2019-02-24T10:45:49.067Z,12.10
2019-02-24T10:48:17.027Z,12.18
2019-02-24T10:50:44.916Z,10.35
2019-02-24T10:53:12.757Z,11.65
2019-02-24T10:55:40.632Z,8.75
2019-02-24T10:58:08.490Z,9.35
2019-02-24T11:00:36.473Z,10.15
2019-02-24T11:03:04.371Z,10.18
2019-02-24T11:05:32.216Z,10.78
2019-02-24T11:08:00.114Z,10.00
2019-02-24T11:10:27.986Z,8.43
2019-02-24T11:12:55.895Z,7.95
2019-02-24T11:15:23.883Z,9.15
2019-02-24T11:17:51.710Z,11.22
2019-02-24T11:20:19.538Z,7.67
2019-02-24T11:22:47.435Z,8.23
2019-02-24T11:25:15.396Z,9.03
2019-02-24T11:27:43.277Z,7.95
2019-02-24T11:30:11.167Z,10.90
2019-02-24T11:32:39.024Z,8.58
2019-02-24T11:35:06.878Z,8.78
2019-02-24T11:37:34.739Z,9.05
2019-02-24T11:40:02.633Z,8.75
2019-02-24T11:42:30.500Z,7.75
2019-02-24T11:44:58.476Z,8.18
2019-02-24T11:47:26.339Z,10.30
2019-02-24T11:49:54.191Z,6.92
2019-02-24T11:52:22.040Z,7.97
2019-02-24T11:54:49.913Z,9.23
2019-02-24T11:57:17.758Z,8.73
2019-02-24T11:59:45.652Z,9.73
2019-02-24T12:02:13.500Z,7.58
2019-02-24T12:04:41.370Z,7.45
2019-02-24T12:07:09.217Z,6.35
2019-02-24T12:09:37.109Z,7.65
2019-02-24T12:12:05.000Z,5.17
2019-02-24T12:14:33.003Z,5.45
2019-02-24T12:17:00.961Z,6.40
2019-02-24T12:19:28.931Z,6.78
2019-02-24T12:21:56.792Z,5.50
2019-02-24T12:24:24.671Z,6.67
2019-02-24T12:26:52.536Z,5.62
2019-02-24T12:29:20.531Z,5.95
2019-02-24T12:31:56.376Z,5.70
2019-02-24T12:34:18.103Z,5.72
2019-02-24T12:36:46.073Z,7.55
2019-02-24T12:39:14.042Z,4.37
2019-02-24T12:41:41.917Z,5.15
2019-02-24T12:44:09.810Z,5.45
2019-02-24T12:46:37.715Z,5.25
2019-02-24T12:49:05.606Z,5.22
2019-02-24T12:51:33.489Z,6.25
2019-02-24T12:54:01.391Z,5.75
2019-02-24T12:56:29.251Z,6.22
2019-02-24T12:58:57.225Z,5.47
2019-02-24T13:01:25.165Z,5.45
2019-02-24T13:03:53.079Z,6.58
2019-02-24T13:06:21.024Z,7.10
2019-02-24T13:08:48.903Z,6.58
2019-02-24T13:11:17.091Z,6.12
2019-02-24T13:13:45.031Z,6.28
2019-02-24T13:16:12.925Z,10.65
2019-02-24T13:18:40.872Z,8.65
2019-02-24T13:21:08.746Z,9.68
2019-02-24T13:23:36.601Z,6.50
2019-02-24T13:26:04.582Z,5.90
2019-02-24T13:28:32.542Z,7.25
2019-02-24T13:31:00.526Z,5.92
2019-02-24T13:33:28.471Z,8.20
2019-02-24T13:35:56.362Z,10.63
2019-02-24T13:38:24.205Z,5.50
2019-02-24T13:40:52.175Z,7.12
2019-02-24T13:43:20.114Z,5.08
2019-02-24T13:45:48.019Z,5.17
2019-02-24T13:48:15.868Z,5.67
2019-02-24T13:50:43.768Z,5.60
2019-02-24T13:53:11.587Z,8.53
2019-02-24T13:55:39.449Z,6.62
2019-02-24T13:58:07.423Z,6.53
2019-02-24T14:00:35.321Z,5.83
2019-02-24T14:03:03.196Z,6.05
2019-02-24T14:05:31.072Z,5.10
2019-02-24T14:07:58.972Z,5.83
2019-02-24T14:10:26.866Z,6.00
2019-02-24T14:12:54.751Z,6.10
2019-02-24T14:15:22.693Z,5.17
2019-02-24T14:17:50.542Z,5.42
2019-02-24T14:20:18.430Z,7.00
2019-02-24T14:22:46.316Z,6.72
2019-02-24T14:25:14.229Z,17.65
2019-02-24T14:27:42.102Z,6.05
2019-02-24T14:30:10.020Z,8.43
2019-02-24T14:32:37.888Z,6.97
2019-02-24T14:35:05.837Z,6.60
2019-02-24T14:37:33.673Z,5.42
2019-02-24T14:40:01.538Z,4.97
2019-02-24T14:42:29.452Z,7.67
2019-02-24T14:44:57.416Z,5.72
2019-02-24T14:47:25.260Z,5.67
2019-02-24T14:49:53.208Z,4.40
2019-02-24T14:52:21.183Z,9.03
2019-02-24T14:54:49.074Z,13.35
2019-02-24T14:57:17.033Z,8.00
2019-02-24T14:59:44.980Z,6.92
2019-02-24T15:02:12.834Z,5.05
2019-02-24T15:04:40.685Z,5.90
2019-02-24T15:07:08.609Z,5.72
2019-02-24T15:09:36.591Z,5.92
2019-02-24T15:12:04.573Z,7.47
2019-02-24T15:14:32.538Z,7.62
2019-02-24T15:17:00.496Z,6.90
2019-02-24T15:19:28.473Z,6.22
2019-02-24T15:21:56.329Z,6.10
2019-02-24T15:24:24.300Z,6.22
2019-02-24T15:26:52.147Z,6.33
2019-02-24T15:29:20.122Z,5.08
2019-02-24T15:31:47.991Z,7.50
2019-02-24T15:34:15.870Z,6.85
2019-02-24T15:36:43.834Z,9.78
2019-02-24T15:39:11.726Z,5.67
2019-02-24T15:41:39.731Z,5.25
2019-02-24T15:44:07.785Z,7.87
2019-02-24T15:46:35.762Z,10.08
2019-02-24T15:49:03.674Z,7.65
2019-02-24T15:51:31.537Z,8.80
2019-02-24T15:53:59.488Z,6.80
2019-02-24T15:56:27.432Z,5.72
2019-02-24T15:58:55.290Z,6.60
2019-02-24T16:01:23.160Z,18.05
2019-02-24T16:03:51.076Z,12.88
2019-02-24T16:06:19.022Z,10.58
2019-02-24T16:08:46.943Z,9.43
2019-02-24T16:11:14.817Z,7.12
2019-02-24T16:13:42.691Z,14.10
2019-02-24T16:16:10.558Z,13.10
2019-02-24T16:18:38.457Z,10.32
2019-02-24T16:21:06.415Z,8.25
2019-02-24T16:23:34.388Z,7.35
2019-02-24T16:26:02.232Z,10.72
2019-02-24T16:28:30.095Z,10.82
2019-02-24T16:30:57.940Z,8.95
2019-02-24T16:33:25.843Z,9.18
2019-02-24T16:35:53.994Z,6.75
2019-02-24T16:38:21.892Z,11.22
2019-02-24T16:40:49.883Z,10.55
2019-02-24T16:43:17.852Z,25.65
2019-02-24T16:45:45.873Z,44.93
2019-02-24T16:48:13.806Z,40.70
2019-02-24T16:50:41.926Z,25.50
2019-02-24T16:53:09.740Z,15.25
2019-02-24T16:55:37.619Z,13.40
2019-02-24T16:58:05.484Z,17.52
2019-02-24T17:00:33.353Z,7.58
2019-02-24T17:03:01.287Z,8.10
2019-02-24T17:05:29.467Z,8.10
2019-02-24T17:07:57.423Z,10.03
2019-02-24T17:10:25.328Z,7.80
2019-02-24T17:12:53.172Z,9.08
2019-02-24T17:15:21.077Z,9.88
2019-02-24T17:17:48.980Z,13.13
2019-02-24T17:20:16.886Z,7.90
2019-02-24T17:22:44.734Z,9.35
2019-02-24T17:25:12.617Z,6.22
2019-02-24T17:27:40.455Z,5.92
2019-02-24T17:30:08.410Z,8.45
2019-02-24T17:32:36.384Z,7.60
2019-02-24T17:35:04.366Z,11.15
2019-02-24T17:37:32.296Z,8.85
2019-02-24T17:40:00.332Z,11.53
2019-02-24T17:42:28.382Z,5.97
2019-02-24T17:44:56.260Z,7.17
2019-02-24T17:47:24.169Z,7.67
2019-02-24T17:49:51.989Z,8.73
2019-02-24T17:52:19.873Z,6.85
2019-02-24T17:54:47.906Z,11.35
2019-02-24T17:57:15.915Z,8.68
2019-02-24T17:59:43.811Z,4.62
2019-02-24T18:02:11.858Z,9.70
2019-02-24T18:04:39.810Z,8.33
2019-02-24T18:07:07.677Z,8.43
2019-02-24T18:09:35.616Z,7.95
2019-02-24T18:12:03.662Z,7.37
2019-02-24T18:14:31.527Z,6.72
2019-02-24T18:16:59.381Z,8.43
2019-02-24T18:19:29.649Z,6.40
2019-02-24T18:21:57.614Z,8.15
2019-02-24T18:24:25.576Z,13.38
2019-02-24T18:26:53.479Z,32.35
2019-02-24T18:29:21.359Z,16.87
2019-02-24T18:31:49.237Z,11.90
2019-02-24T18:34:17.171Z,7.90
2019-02-24T18:36:45.029Z,8.33
2019-02-24T18:39:12.935Z,9.48
2019-02-24T18:41:40.813Z,12.70
2019-02-24T18:44:08.663Z,18.25
2019-02-24T18:46:36.672Z,12.73
2019-02-24T18:49:07.269Z,15.75
2019-02-24T18:51:35.160Z,19.32
2019-02-24T18:54:03.119Z,24.40
2019-02-24T18:56:31.130Z,22.50
2019-02-24T18:58:59.018Z,22.13
2019-02-24T19:01:26.987Z,14.70
2019-02-24T19:03:57.733Z,11.80
2019-02-24T19:06:24.653Z,10.63
2019-02-24T19:08:52.583Z,11.20
2019-02-24T19:11:20.567Z,10.98
2019-02-24T19:13:48.524Z,11.48
2019-02-24T19:16:16.506Z,9.33
2019-02-24T19:18:44.840Z,10.23
2019-02-24T19:21:12.828Z,10.03
2019-02-24T19:23:40.726Z,10.43
2019-02-24T19:26:08.579Z,10.40
2019-02-24T19:28:36.465Z,6.97
2019-02-24T19:31:04.378Z,13.98
2019-02-24T19:33:32.322Z,8.78
2019-02-24T19:36:00.185Z,10.35
2019-02-24T19:38:28.080Z,10.32
2019-02-24T19:40:55.966Z,12.23
2019-02-24T19:43:23.927Z,13.32
2019-02-24T19:45:51.842Z,12.85
2019-02-24T19:48:19.711Z,13.32
2019-02-24T19:50:47.587Z,9.58
2019-02-24T19:53:15.523Z,10.40
2019-02-24T19:55:43.518Z,12.88
2019-02-24T19:58:11.409Z,10.03
2019-02-24T20:00:39.305Z,10.82
2019-02-24T20:03:07.179Z,9.20
2019-02-24T20:05:35.142Z,9.85
2019-02-24T20:08:03.156Z,8.13
2019-02-24T20:10:31.026Z,8.93
2019-02-24T20:12:58.885Z,10.30
2019-02-24T20:15:26.779Z,15.10
2019-02-24T20:17:54.635Z,13.38
2019-02-24T20:20:22.521Z,9.88
2019-02-24T20:22:50.410Z,12.03
2019-02-24T20:25:18.376Z,11.12
2019-02-24T20:27:46.245Z,8.38
2019-02-24T20:30:14.122Z,7.60
2019-02-24T20:32:41.959Z,7.75
2019-02-24T20:35:09.854Z,7.97
2019-02-24T20:37:37.727Z,6.58
2019-02-24T20:40:05.723Z,10.60
2019-02-24T20:42:33.579Z,12.20
2019-02-24T20:45:01.465Z,7.72
2019-02-24T20:47:29.466Z,8.50
2019-02-24T20:49:57.398Z,8.63
2019-02-24T20:52:25.278Z,10.25
2019-02-24T20:54:53.249Z,7.15
2019-02-24T20:57:21.122Z,8.43
2019-02-24T20:59:49.175Z,8.60
2019-02-24T21:02:17.132Z,9.25
2019-02-24T21:04:45.071Z,6.17
2019-02-24T21:07:12.899Z,9.35
2019-02-24T21:09:40.777Z,8.53
2019-02-24T21:12:08.742Z,8.05
2019-02-24T21:14:36.572Z,7.47
2019-02-24T21:17:04.450Z,9.35
2019-02-24T21:19:32.339Z,8.70
2019-02-24T21:22:00.241Z,7.80
2019-02-24T21:24:28.109Z,7.45
2019-02-24T21:26:55.993Z,9.18
2019-02-24T21:29:23.822Z,8.60
2019-02-24T21:31:51.668Z,8.70
2019-02-24T21:34:19.513Z,8.75
2019-02-24T21:36:47.377Z,10.78
2019-02-24T21:39:15.228Z,11.48
2019-02-24T21:41:43.195Z,8.15
2019-02-24T21:44:11.030Z,10.03
2019-02-24T21:46:38.896Z,9.45
2019-02-24T21:49:06.743Z,7.85
2019-02-24T21:51:34.639Z,7.92
2019-02-24T21:54:02.471Z,7.15
2019-02-24T21:56:30.347Z,9.08
2019-02-24T21:58:58.207Z,10.72
2019-02-24T22:01:26.114Z,8.25
2019-02-24T22:03:53.972Z,8.70
2019-02-24T22:06:21.856Z,12.63
2019-02-24T22:08:49.771Z,10.70
2019-02-24T22:11:17.651Z,10.95
2019-02-24T22:13:45.495Z,11.40
2019-02-24T22:16:13.375Z,10.55
2019-02-24T22:18:41.240Z,9.18
2019-02-24T22:21:09.080Z,8.03
2019-02-24T22:23:36.964Z,8.65
2019-02-24T22:26:04.841Z,8.13
2019-02-24T22:28:32.731Z,9.28
2019-02-24T22:31:00.621Z,9.45
2019-02-24T22:33:28.517Z,9.63
2019-02-24T22:35:56.429Z,10.95
2019-02-24T22:38:24.272Z,7.83
2019-02-24T22:40:54.332Z,10.85
2019-02-24T22:43:21.789Z,8.40
2019-02-24T22:45:49.633Z,8.93
2019-02-24T22:48:17.482Z,9.08
2019-02-24T22:50:45.389Z,9.28
2019-02-24T22:53:13.283Z,11.75
2019-02-24T22:55:41.228Z,7.80
2019-02-24T22:58:09.107Z,7.87
2019-02-24T23:00:54.620Z,9.30
2019-02-24T23:05:49.109Z,8.88
2019-02-24T23:08:16.971Z,9.65
2019-02-24T23:10:44.929Z,8.18
2019-02-24T23:13:12.785Z,8.03
2019-02-24T23:15:40.717Z,10.90
2019-02-24T23:18:08.689Z,8.28
2019-02-24T23:20:36.536Z,7.47
2019-02-24T23:23:04.500Z,8.33
2019-02-24T23:25:32.392Z,6.60
2019-02-24T23:28:00.243Z,7.72
2019-02-24T23:30:28.087Z,11.20
2019-02-24T23:32:55.956Z,8.28
2019-02-24T23:35:23.814Z,8.48
2019-02-24T23:37:51.763Z,12.10
2019-02-24T23:40:19.716Z,10.23
2019-02-24T23:42:47.563Z,8.85
2019-02-24T23:45:15.455Z,9.15
2019-02-24T23:47:43.312Z,10.68
2019-02-24T23:50:11.178Z,9.48
2019-02-24T23:52:39.063Z,8.85
2019-02-24T23:55:06.940Z,8.50
2019-02-24T23:57:34.798Z,8.10
